Time;durP1;ratioP1;P1;durP2;ratioP2;P2;SDS_P1;SDS_P2;PMS_P1;PMS_P2;Temp;Humidity;BMP_temperature;BMP_pressure;BME280_temperature;BME280_humidity;BME280_pressure;Samples;Min_cycle;Max_cycle;Signal;HPM_P1;HPM_P2
2023/07/27 00:00:37;;;;;;;7.13;4.65;;;;;;;17.24;79.24;100313.34;5029031;28;20063;-78
2023/07/27 00:03:04;;;;;;;7.57;5.07;;;;;;;17.23;78.72;100307.25;5030415;28;20132;-76
2023/07/27 00:05:32;;;;;;;6.45;4.55;;;;;;;17.21;79.18;100304.00;5030716;28;20554;-79
2023/07/27 00:07:58;;;;;;;6.53;4.95;;;;;;;17.21;79.22;100308.47;5030430;28;20064;-78
2023/07/27 00:10:25;;;;;;;8.48;5.55;;;;;;;17.24;79.22;100300.13;5030747;28;20050;-78
2023/07/27 00:12:52;;;;;;;7.88;5.50;;;;;;;17.20;79.06;100307.66;5031902;28;20063;-77
2023/07/27 00:15:18;;;;;;;5.97;5.00;;;;;;;17.16;79.19;100306.44;5031552;28;20045;-77
2023/07/27 00:17:45;;;;;;;8.85;5.35;;;;;;;17.17;78.95;100299.31;5031948;28;20056;-79
2023/07/27 00:20:12;;;;;;;7.07;4.80;;;;;;;17.16;79.50;100300.34;5031828;28;20132;-78
2023/07/27 00:22:40;;;;;;;7.07;4.72;;;;;;;17.20;79.23;100298.91;5029591;28;20069;-78
2023/07/27 00:25:08;;;;;;;7.80;4.88;;;;;;;17.15;79.08;100296.88;5028796;28;20136;-78
2023/07/27 00:27:34;;;;;;;9.32;4.75;;;;;;;17.10;79.49;100287.94;5031033;28;20050;-79
2023/07/27 00:30:01;;;;;;;7.88;4.57;;;;;;;17.10;79.99;100298.50;5029998;28;20087;-78
2023/07/27 00:32:27;;;;;;;9.73;5.00;;;;;;;17.12;79.51;100283.25;5030044;28;20088;-77
2023/07/27 00:34:55;;;;;;;10.13;5.18;;;;;;;17.10;79.62;100285.31;5032070;28;20045;-79
2023/07/27 00:37:21;;;;;;;8.13;4.90;;;;;;;17.07;80.17;100291.00;5029389;28;20053;-78
2023/07/27 00:39:49;;;;;;;7.07;4.88;;;;;;;17.05;80.26;100287.75;5032616;28;20054;-77
2023/07/27 00:42:16;;;;;;;7.15;5.07;;;;;;;17.01;80.18;100282.09;5031424;28;20045;-78
2023/07/27 00:44:42;;;;;;;7.03;4.70;;;;;;;17.00;80.47;100279.66;5029363;28;20049;-78
2023/07/27 00:47:08;;;;;;;8.82;5.00;;;;;;;16.96;80.10;100279.25;5028836;28;20140;-79
2023/07/27 00:49:35;;;;;;;6.50;4.78;;;;;;;16.91;80.39;100273.75;5030325;28;20060;-76
2023/07/27 00:52:06;;;;;;;8.63;4.82;;;;;;;16.89;80.35;100273.97;5029002;28;20056;-79
2023/07/27 00:54:33;;;;;;;7.78;4.75;;;;;;;16.87;80.53;100265.44;5030172;28;20168;-76
2023/07/27 00:57:01;;;;;;;7.10;4.70;;;;;;;16.88;80.90;100266.25;5034705;28;20156;-78
2023/07/27 00:59:28;;;;;;;6.70;4.82;;;;;;;16.88;80.54;100263.59;5033815;28;20124;-79
2023/07/27 01:01:55;;;;;;;7.63;4.55;;;;;;;16.84;80.70;100262.38;5031354;28;20128;-78
2023/07/27 01:04:22;;;;;;;7.47;5.07;;;;;;;16.82;80.07;100257.31;5030289;28;20576;-78
2023/07/27 01:06:49;;;;;;;7.82;5.03;;;;;;;16.83;79.97;100243.06;5027219;28;20508;-78
2023/07/27 01:09:15;;;;;;;6.25;4.57;;;;;;;16.84;79.88;100244.69;5026116;28;20049;-78
2023/07/27 01:11:50;;;;;;;7.28;5.20;;;;;;;16.84;80.08;100242.06;5027824;28;20076;-80
2023/07/27 01:14:29;;;;;;;7.85;4.80;;;;;;;16.86;79.50;100237.38;5027691;28;20496;-77
2023/07/27 01:17:04;;;;;;;8.55;4.70;;;;;;;16.98;78.76;100237.56;5031207;28;20037;-80
2023/07/27 01:19:57;;;;;;;8.23;5.00;;;;;;;17.05;78.28;100235.69;5033177;28;20049;-79
2023/07/27 01:22:44;;;;;;;5.70;4.68;;;;;;;17.06;78.44;100228.56;5028706;28;20393;-78
2023/07/27 01:25:37;;;;;;;6.43;4.60;;;;;;;17.03;78.65;100227.16;5029814;28;20144;-78
2023/07/27 01:28:14;;;;;;;5.53;4.55;;;;;;;17.05;78.92;100235.69;5035644;28;20531;-79
2023/07/27 01:30:51;;;;;;;7.63;4.78;;;;;;;17.05;78.85;100238.34;5033096;28;20128;-78
2023/07/27 01:33:22;;;;;;;7.68;5.82;;;;;;;17.01;78.88;100228.41;5033018;28;20132;-78
2023/07/27 01:35:56;;;;;;;8.20;5.10;;;;;;;16.99;79.21;100239.19;5033764;28;20041;-78
2023/07/27 01:38:24;;;;;;;10.48;5.10;;;;;;;17.02;78.76;100235.28;5034373;28;20080;-78
2023/07/27 01:40:54;;;;;;;8.30;4.70;;;;;;;17.01;79.00;100221.28;5037009;28;20042;-79
2023/07/27 01:43:22;;;;;;;8.25;5.10;;;;;;;16.96;78.81;100218.47;5034462;28;20143;-78
2023/07/27 01:45:51;;;;;;;6.65;5.03;;;;;;;16.91;79.04;100212.97;5031496;28;20487;-78
2023/07/27 01:48:18;;;;;;;8.40;4.80;;;;;;;16.88;79.25;100210.75;5033138;28;20049;-79
2023/07/27 01:50:46;;;;;;;7.10;5.03;;;;;;;16.87;79.10;100202.00;5032893;28;20053;-79
2023/07/27 01:53:15;;;;;;;5.75;4.78;;;;;;;16.85;79.40;100204.03;5033045;28;20240;-76
2023/07/27 01:55:43;;;;;;;9.85;4.55;;;;;;;16.84;79.31;100210.34;5033177;28;20066;-77
2023/07/27 01:58:11;;;;;;;10.57;5.10;;;;;;;16.84;79.80;100210.34;5033055;28;20140;-75
2023/07/27 02:00:38;;;;;;;7.93;5.00;;;;;;;16.81;80.11;100216.03;5028369;28;20062;-77
2023/07/27 02:03:06;;;;;;;7.90;4.80;;;;;;;16.82;80.22;100208.94;5024528;28;20100;-75
2023/07/27 02:05:33;;;;;;;9.60;5.45;;;;;;;16.84;80.02;100204.25;5032579;28;20535;-77
2023/07/27 02:07:59;;;;;;;9.40;4.93;;;;;;;16.89;80.07;100207.09;5031835;28;20140;-76
2023/07/27 02:10:26;;;;;;;6.22;4.22;;;;;;;16.85;79.86;100206.69;5028873;28;20117;-79
2023/07/27 02:12:59;;;;;;;6.57;4.68;;;;;;;16.90;80.16;100214.00;5034937;28;20080;-81
2023/07/27 02:15:30;;;;;;;7.70;5.05;;;;;;;16.89;79.74;100213.19;5033162;28;20053;-80
2023/07/27 02:18:03;;;;;;;6.47;4.70;;;;;;;16.88;80.46;100219.50;5033026;28;20053;-79
2023/07/27 02:20:35;;;;;;;7.43;4.50;;;;;;;16.82;81.35;100215.03;5032996;28;20412;-77
2023/07/27 02:23:04;;;;;;;8.83;4.80;;;;;;;16.85;81.78;100219.91;5034014;28;20068;-80
2023/07/27 02:25:31;;;;;;;6.45;4.97;;;;;;;16.82;81.59;100211.56;5034284;28;20327;-79
2023/07/27 02:27:57;;;;;;;8.75;5.20;;;;;;;16.80;81.40;100211.78;5034161;28;20155;-80
2023/07/27 02:30:24;;;;;;;6.90;4.72;;;;;;;16.85;81.87;100208.53;5032770;28;20084;-80
2023/07/27 02:32:50;;;;;;;7.45;4.53;;;;;;;16.82;83.67;100214.22;5031174;28;20522;-79
2023/07/27 02:35:17;;;;;;;6.38;4.90;;;;;;;16.78;84.26;100218.28;5034985;28;20664;-80
2023/07/27 02:37:45;;;;;;;7.45;4.88;;;;;;;16.74;85.62;100211.78;5034036;28;20080;-78
2023/07/27 02:40:12;;;;;;;7.45;5.03;;;;;;;16.59;86.19;100219.91;5032606;28;20084;-80
2023/07/27 02:42:41;;;;;;;8.05;4.60;;;;;;;16.55;87.03;100218.69;5034145;28;20483;-79
2023/07/27 02:45:09;;;;;;;8.38;5.00;;;;;;;16.51;88.25;100225.41;5032442;28;20162;-79
2023/07/27 02:47:35;;;;;;;6.28;5.13;;;;;;;16.39;89.53;100225.22;5029588;28;20060;-77
2023/07/27 02:50:02;;;;;;;8.68;5.45;;;;;;;16.33;90.79;100225.22;5032320;28;20060;-80
2023/07/27 02:52:28;;;;;;;6.72;5.03;;;;;;;16.27;92.05;100232.94;5032303;28;20057;-79
2023/07/27 02:54:56;;;;;;;7.43;5.53;;;;;;;16.25;93.65;100229.66;5031611;28;20076;-78
2023/07/27 02:57:23;;;;;;;8.90;5.50;;;;;;;16.14;94.66;100234.72;5033783;28;20056;-79
2023/07/27 02:59:50;;;;;;;7.95;5.68;;;;;;;15.97;95.90;100220.31;5033270;28;20520;-78
2023/07/27 03:02:17;;;;;;;8.63;5.32;;;;;;;15.85;96.39;100222.72;5030581;28;20136;-79
2023/07/27 03:04:43;;;;;;;8.65;5.65;;;;;;;15.77;98.16;100222.91;5032164;28;20107;-79
2023/07/27 03:07:10;;;;;;;10.30;5.60;;;;;;;15.70;98.70;100224.72;5031301;28;20085;-79
2023/07/27 03:09:37;;;;;;;7.90;5.47;;;;;;;15.65;100.00;100222.66;5028407;28;20132;-77
2023/07/27 03:12:06;;;;;;;9.35;5.90;;;;;;;15.58;100.00;100220.03;5032635;28;20076;-80
2023/07/27 03:14:33;;;;;;;7.78;6.15;;;;;;;15.53;100.00;100225.06;5036244;28;20109;-79
2023/07/27 03:17:00;;;;;;;7.57;5.72;;;;;;;15.42;100.00;100214.25;5030550;28;20148;-80
2023/07/27 03:19:27;;;;;;;8.68;6.40;;;;;;;15.42;100.00;100201.09;5031189;28;20092;-78
2023/07/27 03:21:54;;;;;;;9.05;5.65;;;;;;;15.46;100.00;100197.03;5030842;28;20084;-78
2023/07/27 03:24:20;;;;;;;9.90;6.13;;;;;;;15.38;100.00;100194.56;5031307;28;20071;-77
2023/07/27 03:26:47;;;;;;;11.00;5.93;;;;;;;15.50;100.00;100199.09;5031766;28;20053;-77
2023/07/27 03:29:15;;;;;;;8.77;6.25;;;;;;;15.48;100.00;100206.38;5031642;28;20132;-77
2023/07/27 03:31:41;;;;;;;9.75;6.15;;;;;;;15.42;100.00;100196.63;5027176;28;20056;-77
2023/07/27 03:34:08;;;;;;;8.38;5.93;;;;;;;15.41;100.00;100199.47;5030562;28;20061;-77
2023/07/27 03:36:34;;;;;;;10.73;6.28;;;;;;;15.32;100.00;100190.91;5034946;28;20041;-79
2023/07/27 03:39:01;;;;;;;10.82;6.38;;;;;;;15.29;100.00;100186.03;5031726;28;20103;-78
2023/07/27 03:41:28;;;;;;;9.98;6.10;;;;;;;15.18;100.00;100178.69;5030829;28;20133;-78
2023/07/27 03:43:54;;;;;;;8.10;6.20;;;;;;;15.12;100.00;100174.22;5028340;28;20044;-78
2023/07/27 03:46:22;;;;;;;9.85;6.38;;;;;;;15.09;100.00;100187.78;5023520;28;20479;-78
2023/07/27 03:48:50;;;;;;;7.22;5.88;;;;;;;15.08;100.00;100189.59;5031401;28;20084;-78
2023/07/27 03:51:17;;;;;;;9.70;6.10;;;;;;;15.06;100.00;100172.38;5030754;28;20049;-76
2023/07/27 03:53:44;;;;;;;14.45;6.88;;;;;;;14.94;100.00;100167.66;5030536;28;20054;-77
2023/07/27 03:56:10;;;;;;;10.30;6.70;;;;;;;14.97;100.00;100160.38;5030671;28;20136;-77
2023/07/27 03:58:37;;;;;;;11.75;6.82;;;;;;;14.91;100.00;100160.13;5030839;28;20053;-78
2023/07/27 04:01:04;;;;;;;11.07;6.85;;;;;;;14.89;100.00;100158.69;5027183;28;20076;-80
2023/07/27 04:03:32;;;;;;;9.05;6.63;;;;;;;14.93;100.00;100152.03;5028533;28;20125;-79
2023/07/27 04:05:59;;;;;;;10.02;6.65;;;;;;;15.07;100.00;100153.72;5030631;28;20129;-79
2023/07/27 04:08:25;;;;;;;9.35;6.55;;;;;;;15.02;100.00;100147.41;5026550;28;20049;-78
2023/07/27 04:10:52;;;;;;;11.32;6.78;;;;;;;14.97;100.00;100147.19;5029808;28;20132;-77
2023/07/27 04:13:19;;;;;;;9.00;7.03;;;;;;;14.91;100.00;100151.41;5029193;28;20042;-76
2023/07/27 04:15:45;;;;;;;14.45;8.02;;;;;;;14.88;100.00;100147.34;5028108;28;20045;-77
2023/07/27 04:18:12;;;;;;;19.38;8.10;;;;;;;14.86;100.00;100130.13;5029744;28;20107;-77
2023/07/27 04:20:40;;;;;;;14.45;8.32;;;;;;;14.83;100.00;100131.31;5029836;28;20089;-78
2023/07/27 04:23:07;;;;;;;10.68;7.85;;;;;;;14.77;100.00;100124.19;5019668;28;20486;-77
2023/07/27 04:25:33;;;;;;;8.90;7.30;;;;;;;14.76;100.00;100121.75;5032242;28;20084;-81
2023/07/27 04:28:00;;;;;;;10.73;7.72;;;;;;;14.70;100.00;100118.06;5031480;28;20091;-80
2023/07/27 04:30:27;;;;;;;10.63;7.40;;;;;;;14.72;100.00;100121.31;5027794;28;20055;-81
2023/07/27 04:32:53;;;;;;;12.20;7.80;;;;;;;14.74;100.00;100124.56;5029858;28;20132;-79
2023/07/27 04:35:20;;;;;;;13.02;7.85;;;;;;;14.65;100.00;100107.31;5029424;28;20049;-79
2023/07/27 04:37:48;;;;;;;13.82;7.93;;;;;;;14.58;100.00;100109.13;5016012;28;20053;-80
2023/07/27 04:40:14;;;;;;;11.13;8.43;;;;;;;14.55;100.00;100114.78;5033354;28;20128;-79
2023/07/27 04:42:41;;;;;;;10.57;7.80;;;;;;;14.57;100.00;100107.50;5032668;28;20518;-79
2023/07/27 04:45:09;;;;;;;14.88;8.40;;;;;;;14.53;100.00;100106.25;5031600;28;20049;-78
2023/07/27 04:47:35;;;;;;;10.02;7.97;;;;;;;14.54;100.00;100119.22;5030779;28;20049;-80
2023/07/27 04:50:02;;;;;;;13.48;8.07;;;;;;;14.42;100.00;100104.97;5032458;28;20056;-80
2023/07/27 04:52:29;;;;;;;11.35;8.18;;;;;;;14.43;100.00;100111.06;5031405;28;20102;-79
2023/07/27 04:54:57;;;;;;;11.38;7.80;;;;;;;14.37;100.00;100103.91;5026882;28;20538;-78
2023/07/27 04:57:23;;;;;;;16.17;8.48;;;;;;;14.39;100.00;100110.59;5033251;28;20131;-79
2023/07/27 04:59:50;;;;;;;13.43;8.20;;;;;;;14.34;100.00;100097.19;5032221;28;20140;-78
2023/07/27 05:02:16;;;;;;;12.02;8.48;;;;;;;14.33;100.00;100097.38;5026041;28;20081;-79
2023/07/27 05:04:43;;;;;;;11.93;8.10;;;;;;;14.38;100.00;100092.38;5032851;28;20077;-79
2023/07/27 05:07:10;;;;;;;13.48;8.45;;;;;;;14.33;100.00;100092.94;5033392;28;20457;-78
2023/07/27 05:09:36;;;;;;;11.20;8.02;;;;;;;14.27;100.00;100078.72;5028581;28;20136;-78
2023/07/27 05:12:04;;;;;;;11.23;8.35;;;;;;;14.26;100.00;100069.22;5032769;28;20132;-78
2023/07/27 05:14:31;;;;;;;11.25;8.20;;;;;;;14.28;100.00;100059.31;5032292;28;20136;-78
2023/07/27 05:16:58;;;;;;;12.77;8.70;;;;;;;14.28;100.00;100054.03;5029318;28;20242;-79
2023/07/27 05:19:24;;;;;;;13.93;8.73;;;;;;;14.24;100.00;100058.06;5032727;28;20054;-79
2023/07/27 05:21:51;;;;;;;11.80;8.27;;;;;;;14.21;100.00;100050.56;5032899;28;20235;-79
2023/07/27 05:24:17;;;;;;;10.43;8.27;;;;;;;14.33;100.00;100036.84;5029886;28;20152;-79
2023/07/27 05:26:44;;;;;;;13.38;9.57;;;;;;;14.25;100.00;100043.91;5033515;28;20085;-79
2023/07/27 05:29:12;;;;;;;10.73;8.25;;;;;;;14.33;100.00;100044.75;5032929;28;20093;-79
2023/07/27 05:31:39;;;;;;;11.75;8.15;;;;;;;14.37;100.00;100040.72;5029807;28;20051;-78
2023/07/27 05:34:07;;;;;;;11.63;8.25;;;;;;;14.33;100.00;100028.97;5032185;28;20137;-79
2023/07/27 05:36:34;;;;;;;13.38;8.40;;;;;;;14.45;100.00;100046.69;5032990;28;20054;-79
2023/07/27 05:39:01;;;;;;;13.27;8.40;;;;;;;14.31;100.00;100029.16;5032278;28;20504;-80
2023/07/27 05:41:27;;;;;;;10.75;8.35;;;;;;;14.47;100.00;100033.31;5033985;28;20113;-80
2023/07/27 05:43:54;;;;;;;13.70;8.48;;;;;;;14.55;100.00;100038.44;5036665;28;20132;-80
2023/07/27 05:46:22;;;;;;;13.63;8.95;;;;;;;14.61;100.00;100040.28;5034256;28;20096;-80
2023/07/27 05:48:48;;;;;;;12.40;7.88;;;;;;;14.58;100.00;100036.22;5038004;28;20508;-80
2023/07/27 05:51:15;;;;;;;12.45;8.15;;;;;;;14.58;100.00;100035.41;5037852;28;20132;-80
2023/07/27 05:53:42;;;;;;;11.90;8.48;;;;;;;14.57;100.00;100034.59;5036931;28;20571;-77
2023/07/27 05:56:08;;;;;;;10.30;8.43;;;;;;;14.63;100.00;100027.72;5037308;28;20124;-79
2023/07/27 05:58:35;;;;;;;13.52;10.15;;;;;;;14.57;100.00;100024.06;5036630;28;20053;-81
2023/07/27 06:01:03;;;;;;;11.93;8.82;;;;;;;14.60;100.00;100028.13;5040845;28;20077;-80
2023/07/27 06:03:31;;;;;;;11.40;9.38;;;;;;;14.70;100.00;100018.00;5042027;28;20055;-79
2023/07/27 06:05:58;;;;;;;11.10;8.93;;;;;;;14.73;100.00;100028.16;5041811;28;20090;-79
2023/07/27 06:08:25;;;;;;;13.05;9.52;;;;;;;14.77;100.00;100023.28;5041926;28;20084;-80
2023/07/27 06:11:01;;;;;;;11.43;9.27;;;;;;;14.76;100.00;100011.13;5039362;28;20145;-80
2023/07/27 06:13:29;;;;;;;11.57;9.55;;;;;;;14.71;100.00;100014.38;5036977;28;20233;-80
2023/07/27 06:15:56;;;;;;;14.82;9.90;;;;;;;14.69;100.00;100012.94;5033850;28;20053;-81
2023/07/27 06:18:23;;;;;;;15.38;9.52;;;;;;;14.80;100.00;100017.63;5036109;28;20562;-80
2023/07/27 06:20:51;;;;;;;14.10;9.07;;;;;;;14.78;100.00;100004.66;5036517;28;20136;-80
2023/07/27 06:23:17;;;;;;;15.32;9.88;;;;;;;14.82;100.00;100005.91;5036408;28;20073;-80
2023/07/27 06:25:45;;;;;;;12.27;9.10;;;;;;;14.72;100.00;100005.44;5036330;28;20041;-80
2023/07/27 06:28:12;;;;;;;15.82;10.13;;;;;;;14.83;100.00;100011.97;5037127;28;20128;-78
2023/07/27 06:30:39;;;;;;;12.43;9.75;;;;;;;14.88;100.00;99997.19;5034211;28;20441;-80
2023/07/27 06:33:06;;;;;;;11.85;9.63;;;;;;;14.85;100.00;100002.88;5030050;28;20136;-80
2023/07/27 06:35:33;;;;;;;19.73;9.98;;;;;;;14.96;100.00;100006.75;5038005;28;20072;-81
2023/07/27 06:38:01;;;;;;;13.68;9.93;;;;;;;14.86;100.00;100001.84;5037325;28;20081;-78
2023/07/27 06:40:28;;;;;;;15.10;10.07;;;;;;;14.88;100.00;99999.84;5036891;28;20057;-80
2023/07/27 06:42:54;;;;;;;15.02;10.57;;;;;;;15.02;100.00;100010.41;5037354;28;20610;-79
2023/07/27 06:45:21;;;;;;;17.25;10.43;;;;;;;14.96;100.00;100004.13;5035334;28;20055;-81
2023/07/27 06:47:48;;;;;;;14.05;10.40;;;;;;;15.00;100.00;99991.34;5037056;28;20049;-80
2023/07/27 06:50:14;;;;;;;11.90;9.93;;;;;;;14.95;100.00;99999.84;5037493;28;20131;-80
2023/07/27 06:52:43;;;;;;;13.50;10.68;;;;;;;15.10;100.00;100002.31;5037592;28;20510;-79
2023/07/27 06:55:11;;;;;;;13.18;10.15;;;;;;;15.14;100.00;99991.16;5037988;28;20050;-81
2023/07/27 06:57:38;;;;;;;14.52;10.30;;;;;;;15.28;100.00;100000.69;5037594;28;20104;-82
2023/07/27 07:00:07;;;;;;;12.57;10.82;;;;;;;15.30;100.00;99983.88;5037355;28;20054;-83
2023/07/27 07:02:34;;;;;;;16.00;11.07;;;;;;;15.42;100.00;99987.53;5032395;28;20129;-82
2023/07/27 07:05:01;;;;;;;13.95;9.60;;;;;;;15.47;100.00;99985.91;5040012;28;20050;-79
2023/07/27 07:07:27;;;;;;;11.57;9.40;;;;;;;15.53;100.00;99982.47;5051479;28;20527;-82
2023/07/27 07:09:54;;;;;;;12.80;9.73;;;;;;;15.63;100.00;99986.53;5041789;28;20041;-81
2023/07/27 07:12:22;;;;;;;12.55;9.05;;;;;;;15.68;100.00;99992.81;5045225;28;20049;-80
2023/07/27 07:14:48;;;;;;;12.45;8.25;;;;;;;15.65;100.00;99993.22;5048504;28;20076;-82
2023/07/27 07:17:15;;;;;;;9.98;7.72;;;;;;;15.72;100.00;99987.94;5043644;28;20042;-83
2023/07/27 07:19:42;;;;;;;13.57;8.20;;;;;;;15.77;100.00;99988.13;5053143;28;20052;-79
2023/07/27 07:22:09;;;;;;;9.73;7.22;;;;;;;15.90;100.00;99982.84;5044762;28;20060;-83
2023/07/27 07:24:35;;;;;;;10.23;6.95;;;;;;;15.87;100.00;99980.63;5046585;28;20530;-81
2023/07/27 07:27:02;;;;;;;9.65;6.45;;;;;;;15.89;100.00;99966.19;5038588;28;20154;-79
2023/07/27 07:29:30;;;;;;;7.30;5.95;;;;;;;15.87;100.00;99959.50;5032057;28;20042;-82
2023/07/27 07:31:57;;;;;;;8.40;6.25;;;;;;;16.00;100.00;99966.59;5030688;28;20080;-81
2023/07/27 07:34:23;;;;;;;10.88;5.93;;;;;;;16.02;100.00;99964.56;5032374;28;20368;-81
2023/07/27 07:36:51;;;;;;;10.48;5.97;;;;;;;15.99;100.00;99965.78;5028334;28;20057;-81
2023/07/27 07:39:18;;;;;;;8.35;5.47;;;;;;;16.02;100.00;99964.56;5035809;28;20049;-79
2023/07/27 07:41:44;;;;;;;7.40;5.35;;;;;;;16.02;100.00;99954.81;5031866;28;20100;-80
2023/07/27 07:44:11;;;;;;;7.72;5.72;;;;;;;16.08;100.00;99948.66;5037394;28;20080;-79
2023/07/27 07:46:40;;;;;;;7.88;5.60;;;;;;;16.09;100.00;99960.84;5037942;28;20087;-79
2023/07/27 07:49:15;;;;;;;5.97;4.90;;;;;;;16.06;100.00;99949.94;5039041;28;20489;-79
2023/07/27 07:51:42;;;;;;;5.95;4.60;;;;;;;16.12;100.00;99947.25;5034143;28;20041;-81
2023/07/27 07:54:09;;;;;;;7.03;4.70;;;;;;;16.14;100.00;99953.13;5031217;28;20056;-80
2023/07/27 07:56:37;;;;;;;5.53;4.70;;;;;;;16.17;100.00;99950.06;5026625;28;20550;-79
2023/07/27 07:59:04;;;;;;;6.38;4.57;;;;;;;16.23;100.00;99948.44;5036984;28;20132;-83
2023/07/27 08:01:31;;;;;;;5.82;4.70;;;;;;;16.35;100.00;99948.59;5037851;28;20045;-82
2023/07/27 08:04:07;;;;;;;6.97;4.20;;;;;;;16.49;100.00;99948.31;5038168;28;20041;-84
2023/07/27 08:06:56;;;;;;;5.80;4.20;;;;;;;16.52;100.00;99929.41;5030247;28;20475;-83
2023/07/27 08:12:42;;;;;;;4.20;3.60;;;;;;;16.58;100.00;99940.94;5010124;28;20081;-81
2023/07/27 08:15:18;;;;;;;5.78;4.13;;;;;;;16.58;100.00;99940.94;5030666;28;20470;-82
2023/07/27 08:17:47;;;;;;;4.93;3.90;;;;;;;16.47;100.00;99942.44;5033182;28;20046;-82
2023/07/27 08:20:15;;;;;;;6.88;4.22;;;;;;;16.62;100.00;99939.50;5034529;28;20092;-83
2023/07/27 08:22:45;;;;;;;5.13;3.80;;;;;;;16.41;100.00;99913.44;5036458;28;20050;-83
2023/07/27 08:25:15;;;;;;;4.88;3.58;;;;;;;16.51;100.00;99937.56;5033330;28;20053;-82
2023/07/27 08:27:55;;;;;;;4.30;3.80;;;;;;;16.62;100.00;99934.22;5038685;28;20056;-82
2023/07/27 08:30:31;;;;;;;5.28;4.32;;;;;;;16.60;100.00;99933.63;5037277;28;20083;-81
2023/07/27 08:33:24;;;;;;;6.15;4.40;;;;;;;16.67;100.00;99936.25;5040131;28;20045;-80
2023/07/27 08:39:11;;;;;;;5.33;4.33;;;;;;;16.78;100.00;99931.09;4937833;29;20018;-80
2023/07/27 08:55:37;;;;;;;7.57;4.88;;;;;;;16.78;100.00;99907.31;4921054;29;20554;-84
2023/07/27 08:58:27;;;;;;;6.68;4.60;;;;;;;16.77;100.00;99907.53;4930273;28;20055;-82
2023/07/27 09:01:23;;;;;;;6.60;4.88;;;;;;;16.89;100.00;99919.84;4941801;28;20133;-79
2023/07/27 09:03:57;;;;;;;7.13;5.70;;;;;;;16.95;100.00;99907.63;4969946;28;20486;-82
2023/07/27 09:22:56;;;;;;;6.95;4.90;;;;;;;17.20;100.00;99912.91;4320753;26;20054;-84
2023/07/27 09:25:56;;;;;;;6.53;4.70;;;;;;;17.31;100.00;99927.25;4991428;28;20081;-81
2023/07/27 09:29:22;;;;;;;5.97;4.60;;;;;;;17.16;100.00;99909.06;4995751;28;20081;-83
2023/07/27 09:40:17;;;;;;;8.20;4.53;;;;;;;17.42;100.00;99892.97;5003689;28;20050;-78
2023/07/27 09:42:48;;;;;;;5.57;4.30;;;;;;;17.42;100.00;99903.56;5013077;28;20077;-79
2023/07/27 09:45:45;;;;;;;8.10;4.20;;;;;;;17.57;100.00;99905.84;5007202;28;20101;-79
2023/07/27 09:48:22;;;;;;;4.65;4.15;;;;;;;17.66;100.00;99911.69;5000294;28;20051;-79
2023/07/27 09:51:01;;;;;;;4.70;3.80;;;;;;;17.76;100.00;99917.28;4997170;28;20063;-80
2023/07/27 09:53:36;;;;;;;3.88;3.53;;;;;;;17.77;100.00;99905.66;4998857;28;20153;-80
2023/07/27 09:56:12;;;;;;;5.40;3.70;;;;;;;17.85;100.00;99900.88;5002420;28;20074;-80
2023/07/27 09:58:48;;;;;;;6.70;3.70;;;;;;;17.94;100.00;99904.06;5020896;28;20527;-80
2023/07/27 10:01:22;;;;;;;4.97;3.95;;;;;;;17.94;100.00;99885.53;5018328;28;20054;-79
2023/07/27 10:03:50;;;;;;;4.95;4.03;;;;;;;18.00;100.00;99903.13;5003891;28;20477;-80
2023/07/27 10:06:43;;;;;;;6.15;4.40;;;;;;;18.08;100.00;99902.84;5003047;28;20051;-80
2023/07/27 10:22:17;;;;;;;6.63;4.03;;;;;;;18.30;100.00;99879.34;5003099;28;20078;-80
2023/07/27 10:28:11;;;;;;;6.32;3.72;;;;;;;18.79;100.00;99899.47;5002714;28;20054;-78
2023/07/27 10:31:11;;;;;;;6.35;3.90;;;;;;;18.88;100.00;99903.41;5003393;28;20101;-78
2023/07/27 10:37:06;;;;;;;4.68;3.55;;;;;;;18.68;100.00;99881.69;4996711;28;20054;-78
2023/07/27 10:39:52;;;;;;;3.95;3.25;;;;;;;18.76;100.00;99896.47;5003740;28;20527;-79
2023/07/27 10:42:23;;;;;;;3.97;3.35;;;;;;;18.78;100.00;99897.03;4998841;28;20073;-80
2023/07/27 10:45:02;;;;;;;4.07;3.50;;;;;;;18.84;100.00;99896.13;5016801;28;20054;-80
2023/07/27 10:47:39;;;;;;;5.47;3.30;;;;;;;19.11;100.00;99907.09;5006764;28;20057;-79
2023/07/27 10:50:32;;;;;;;4.82;3.30;;;;;;;19.19;100.00;99882.91;5000740;28;20058;-79
2023/07/27 10:53:08;;;;;;;3.60;3.00;;;;;;;19.28;100.00;99892.13;5009942;28;20057;-80
2023/07/27 10:55:51;;;;;;;3.67;3.20;;;;;;;19.38;100.00;99905.59;5020992;28;20053;-79
2023/07/27 10:58:31;;;;;;;4.70;3.35;;;;;;;19.27;100.00;99901.13;5007509;28;20567;-79
2023/07/27 11:01:02;;;;;;;4.60;3.20;;;;;;;19.07;100.00;99900.66;5001569;28;20061;-80
2023/07/27 11:03:52;;;;;;;4.50;3.10;;;;;;;19.23;100.00;99899.97;5000877;28;20056;-80
2023/07/27 11:06:40;;;;;;;5.60;3.10;;;;;;;19.34;100.00;99891.22;5007540;28;20049;-81
2023/07/27 11:09:20;;;;;;;3.03;2.60;;;;;;;19.52;100.00;99888.44;5009259;28;20050;-82
2023/07/27 11:11:51;;;;;;;4.88;3.13;;;;;;;19.84;100.00;99899.50;5011352;28;20080;-79
2023/07/27 11:14:18;;;;;;;4.15;3.00;;;;;;;19.90;100.00;99903.03;5001749;28;20118;-80
2023/07/27 11:19:55;;;;;;;3.58;2.85;;;;;;;20.29;100.00;99876.72;4994046;28;20053;-79
2023/07/27 11:22:22;;;;;;;4.50;2.78;;;;;;;20.16;100.00;99873.31;4997148;28;20106;-80
2023/07/27 11:27:55;;;;;;;5.15;3.10;;;;;;;19.42;100.00;99851.06;4998134;28;20042;-80
2023/07/27 11:30:44;;;;;;;3.50;3.20;;;;;;;19.36;100.00;99880.38;5004090;28;20047;-79
2023/07/27 11:33:29;;;;;;;4.50;3.13;;;;;;;19.23;100.00;99874.25;4992985;28;20060;-81
2023/07/27 11:36:24;;;;;;;6.50;3.30;;;;;;;19.17;100.00;99864.56;5024829;28;20056;-79
2023/07/27 11:39:08;;;;;;;5.32;3.17;;;;;;;19.20;100.00;99873.91;5018598;28;20139;-81
2023/07/27 11:42:10;;;;;;;5.70;3.25;;;;;;;19.09;100.00;99856.97;5021440;28;20086;-82
2023/07/27 11:45:31;;;;;;;5.93;3.42;;;;;;;19.07;100.00;99858.22;5005956;28;20065;-81
2023/07/27 11:48:33;;;;;;;4.47;3.30;;;;;;;19.28;100.00;99881.53;4932299;29;20103;-80
2023/07/27 11:57:34;;;;;;;4.82;3.03;;;;;;;19.45;100.00;99861.19;5022287;28;20045;-82
2023/07/27 12:00:12;;;;;;;4.03;2.97;;;;;;;19.47;100.00;99871.59;5010734;28;20054;-79
2023/07/27 12:02:39;;;;;;;3.80;3.10;;;;;;;19.49;100.00;99867.66;5021946;28;20057;-81
2023/07/27 12:05:07;;;;;;;5.97;3.17;;;;;;;19.58;100.00;99857.53;5019427;28;20058;-83
2023/07/27 12:08:19;;;;;;;5.32;3.00;;;;;;;19.43;100.00;99857.97;5013474;28;20048;-82
2023/07/27 12:10:51;;;;;;;7.82;3.03;;;;;;;19.34;100.00;99867.34;4940442;29;20044;-82
2023/07/27 12:13:22;;;;;;;4.60;2.78;;;;;;;19.38;100.00;99876.44;5012442;28;20077;-80
2023/07/27 12:16:00;;;;;;;4.43;3.42;;;;;;;19.50;100.00;99879.88;5002493;28;20069;-80
2023/07/27 12:18:28;;;;;;;4.03;3.10;;;;;;;19.41;100.00;99870.66;5003888;28;20050;-80
2023/07/27 12:20:58;;;;;;;5.78;3.13;;;;;;;19.38;100.00;99886.22;5002524;28;20043;-77
2023/07/27 12:23:27;;;;;;;3.97;2.95;;;;;;;19.47;100.00;99875.03;5002711;28;20050;-80
2023/07/27 12:26:09;;;;;;;4.30;2.72;;;;;;;19.21;100.00;99870.22;5002628;28;20097;-80
2023/07/27 12:28:38;;;;;;;3.30;2.13;;;;;;;19.22;100.00;99859.38;5002148;28;20145;-81
2023/07/27 12:31:08;;;;;;;6.13;2.72;;;;;;;19.35;100.00;99884.06;5001630;28;20062;-79
2023/07/27 12:33:41;;;;;;;4.25;3.10;;;;;;;19.59;100.00;99887.53;5002091;28;20078;-80
2023/07/27 12:36:08;;;;;;;;;;;;;;;19.50;100.00;99882.53;5002531;28;20050;-81
2023/07/27 12:38:38;;;;;;;2.33;2.13;;;;;;;19.39;100.00;99861.31;5002444;28;19921;-80
2023/07/27 12:41:04;;;;;;;3.70;3.00;;;;;;;19.51;100.00;99870.09;5009849;28;20082;-80
2023/07/27 12:43:34;;;;;;;1.83;1.73;;;;;;;19.46;100.00;99886.69;4999970;28;20520;-80
2023/07/27 12:46:10;;;;;;;2.75;1.52;;;;;;;19.16;100.00;99875.41;5000898;28;20050;-80
2023/07/27 12:48:46;;;;;;;3.25;2.17;;;;;;;18.80;100.00;99876.41;5002493;28;20130;-80
2023/07/27 12:51:17;;;;;;;2.47;2.28;;;;;;;19.07;100.00;99900.66;5006071;28;20056;-82
2023/07/27 12:53:53;;;;;;;2.55;2.30;;;;;;;19.21;100.00;99897.56;5007894;28;20050;-80